Latest Coastal Weather Observations for Lucinda

IDQ60701

Issued at 3:32 pm EST Wednesday 22 September 2021 (issued every 10 minutes, with the page automatically refreshed every 10 minutes)

About coastal observations | Map of coastal stations | Coastal observations for QLD | Marine services | Other Formats
Station Details ID: 032141 Name: LUCINDA POINT Lat: -18.52 Lon: 146.39 Height: 10.0 m
Data from the previous 72 hours. | See also: Recent months at Lucinda
Date/Time
EST
Wind Sea
Height
m
Swell Vis
km
Cloud Weather Temp
°C
Press
MSL
hPa
Rain since
9am
mm
Dir  Spd
kts
Gust
kts
Height
m
Period
s
Dir
22/03:30pm ENE 10 13 - - - - - - - - 1017.5 -
22/03:00pm E 10 15 - - - - - - - - 1017.5 -
22/02:30pm ENE 10 15 - - - - - - - - 1017.5 -
22/02:00pm E 11 16 - - - - - - - - 1017.9 -
22/01:30pm E 11 16 - - - - - - - - 1018.1 -
22/01:00pm ESE 11 15 - - - - - - - - 1018.7 -
22/12:30pm SE 9 15 - - - - - - - - 1019.3 -
22/12:00pm SE 10 17 - - - - - - - - 1019.6 -
22/11:30am SSE 14 19 - - - - - - - - 1019.9 -
22/11:00am SSE 17 21 - - - - - - - - 1020.2 -
22/10:30am SSE 19 23 - - - - - - - - 1020.4 -
22/10:00am SSE 17 23 - - - - - - - - 1020.3 -
22/09:30am SSE 23 27 - - - - - - - - 1020.1 -
22/09:00am SSE 19 27 - - - - - - - - 1020.0 -
22/08:30am SSE 20 27 - - - - - - - - 1019.6 -
22/08:00am S 18 29 - - - - - - - - 1019.2 -
22/07:43am S 18 28 - - - - - - - - 1018.9 -
22/07:30am S 20 27 - - - - - - - - 1018.7 -
22/07:00am S 20 28 - - - - - - - - 1018.2 -
22/06:30am S 19 25 - - - - - - - - 1017.8 -
22/06:00am S 19 25 - - - - - - - - 1017.2 -
22/05:30am SSE 23 29 - - - - - - - - 1016.9 -
22/05:14am S 19 29 - - - - - - - - 1016.4 -
22/05:00am S 19 26 - - - - - - - - 1016.2 -
22/04:30am S 20 25 - - - - - - - - 1015.8 -
22/04:01am S 20 30 - - - - - - - - 1015.5 -
22/04:00am S 21 30 - - - - - - - - 1015.6 -
22/03:48am S 20 30 - - - - - - - - 1015.6 -
22/03:30am S 19 27 - - - - - - - - 1015.5 -
22/03:00am S 19 28 - - - - - - - - 1015.2 -
22/02:34am S 21 32 - - - - - - - - 1015.4 -
22/02:30am S 20 27 - - - - - - - - 1015.5 -
22/02:00am SSW 23 30 - - - - - - - - 1015.4 -
22/01:30am SSW 24 29 - - - - - - - - 1015.5 -
22/01:00am SSW 21 27 - - - - - - - - 1015.6 -
22/12:30am SSW 21 24 - - - - - - - - 1015.6 -
22/12:00am SSW 22 27 - - - - - - - - 1015.6 -
 
Date/Time
EST
Wind Sea
Height
m
Swell Vis
km
Cloud Weather Temp
°C
Press
MSL
hPa
Rain since
9am
mm
Dir  Spd
kts
Gust
kts
Height
m
Period
s
Dir
21/11:30pm SSW 25 30 - - - - - - - - 1015.4 -
21/11:00pm SSW 24 28 - - - - - - - - 1015.4 -
21/10:38pm SSW 15 23 - - - - - - - - 1015.4 -
21/10:30pm SW 10 12 - - - - - - - - 1015.5 -
21/10:00pm WSW 9 11 - - - - - - - - 1015.3 -
21/09:30pm SW 5 6 - - - - - - - - 1015.0 -
21/09:00pm SW 6 7 - - - - - - - - 1014.7 -
21/08:30pm WSW 1 5 - - - - - - - - 1014.3 -
21/08:00pm NNW 9 10 - - - - - - - - 1013.7 -
21/07:30pm NNW 9 12 - - - - - - - - 1013.2 -
21/07:00pm NNW 11 13 - - - - - - - - 1012.6 -
21/06:30pm N 11 14 - - - - - - - - 1012.3 -
21/06:00pm N 11 13 - - - - - - - - 1011.9 -
21/05:30pm N 10 13 - - - - - - - - 1011.6 -
21/05:00pm N 9 11 - - - - - - - - 1011.5 -
21/04:30pm N 11 13 - - - - - - - - 1011.4 -
21/04:00pm N 12 15 - - - - - - - - 1011.3 -
21/03:30pm N 12 15 - - - - - - - - 1011.4 -
21/03:00pm N 11 14 - - - - - - - - 1011.5 -
21/02:30pm N 12 15 - - - - - - - - 1011.9 -
21/02:00pm N 11 14 - - - - - - - - 1012.4 -
21/01:30pm N 9 11 - - - - - - - - 1012.8 -
21/01:00pm NNE 6 8 - - - - - - - - 1013.4 -
21/12:30pm NE 5 6 - - - - - - - - 1013.9 -
21/12:00pm ESE 4 7 - - - - - - - - 1014.6 -
21/11:30am ESE 5 7 - - - - - - - - 1015.3 -
21/11:00am SE 4 6 - - - - - - - - 1015.9 -
21/10:30am SE 5 6 - - - - - - - - 1016.2 -
21/10:00am SSW 5 6 - - - - - - - - 1016.3 -
21/09:30am SSW 7 8 - - - - - - - - 1016.6 -
21/09:00am SW 9 11 - - - - - - - - 1016.7 -
21/08:30am WSW 7 8 - - - - - - - - 1016.7 -
21/08:00am WSW 8 11 - - - - - - - - 1016.3 -
21/07:30am WSW 14 17 - - - - - - - - 1016.3 -
21/07:00am SW 17 19 - - - - - - - - 1016.3 -
21/06:30am SW 14 17 - - - - - - - - 1015.9 -
21/06:00am WSW 9 10 - - - - - - - - 1014.9 -
21/05:30am WSW 8 9 - - - - - - - - 1014.7 -
21/05:00am WSW 9 9 - - - - - - - - 1014.5 -
21/04:30am W 9 10 - - - - - - - - 1014.5 -
21/04:00am WSW 9 9 - - - - - - - - 1014.5 -
21/03:30am WSW 10 11 - - - - - - - - 1014.6 -
21/03:00am W 9 10 - - - - - - - - 1014.8 -
21/02:30am WSW 9 11 - - - - - - - - 1015.4 -
21/02:00am WSW 10 11 - - - - - - - - 1015.8 -
21/01:30am SW 10 11 - - - - - - - - 1016.1 -
21/01:00am SW 11 12 - - - - - - - - 1016.6 -
21/12:30am SW 11 11 - - - - - - - - 1017.0 -
21/12:00am SW 10 11 - - - - - - - - 1017.3 -
 
Date/Time
EST
Wind Sea
Height
m
Swell Vis
km
Cloud Weather Temp
°C
Press
MSL
hPa
Rain since
9am
mm
Dir  Spd
kts
Gust
kts
Height
m
Period
s
Dir
20/11:30pm SE 5 7 - - - - - - - - 1017.5 -
20/11:00pm ESE 6 9 - - - - - - - - 1017.7 -
20/10:30pm SE 6 9 - - - - - - - - 1017.8 -
20/10:00pm ESE 7 10 - - - - - - - - 1017.8 -
20/09:30pm ESE 8 11 - - - - - - - - 1017.5 -
20/09:00pm ESE 8 11 - - - - - - - - 1017.4 -
20/08:30pm ESE 8 10 - - - - - - - - 1017.2 -
20/08:00pm E 8 10 - - - - - - - - 1016.9 -
20/07:00pm E 9 11 - - - - - - - - 1016.2 -
20/06:30pm E 10 14 - - - - - - - - 1016.1 -
20/06:00pm E 9 12 - - - - - - - - 1015.9 -
20/05:30pm E 8 11 - - - - - - - - 1015.8 -
20/05:00pm E 8 11 - - - - - - - - 1015.6 -
20/04:30pm E 7 11 - - - - - - - - 1015.6 -
20/04:00pm E 6 10 - - - - - - - - 1015.7 -
20/03:30pm SSE 8 13 - - - - - - - - 1015.9 -
20/03:00pm SSE 11 13 - - - - - - - - 1016.2 -
20/02:30pm SSE 11 13 - - - - - - - - 1016.6 -
20/02:00pm SSE 11 13 - - - - - - - - 1017.2 -
20/01:30pm SSE 12 14 - - - - - - - - 1017.5 -
20/01:00pm SSE 13 16 - - - - - - - - 1017.8 -
20/12:30pm SSE 16 18 - - - - - - - - 1018.0 -
20/12:00pm SSE 17 19 - - - - - - - - 1018.5 -
20/11:30am SSE 14 16 - - - - - - - - 1018.8 -
20/11:00am S 10 13 - - - - - - - - 1019.2 -
20/10:30am SSE 15 19 - - - - - - - - 1019.5 -
20/10:00am SSE 14 18 - - - - - - - - 1019.5 -
20/09:30am SSE 15 17 - - - - - - - - 1019.6 -
20/09:00am SE 8 11 - - - - - - - - 1019.4 -
20/08:30am SE 10 13 - - - - - - - - 1019.3 -
20/08:00am SW 8 9 - - - - - - - - 1019.0 -
20/07:30am SE 3 7 - - - - - - - - 1018.6 -
20/07:00am SE 9 11 - - - - - - - - 1018.3 -
20/06:30am SE 11 13 - - - - - - - - 1018.0 -
20/06:00am SE 11 14 - - - - - - - - 1017.7 -
20/05:30am SE 10 13 - - - - - - - - 1017.5 -
20/05:00am SSE 10 13 - - - - - - - - 1017.3 -
20/04:30am SSE 11 13 - - - - - - - - 1017.3 -
20/04:00am SSE 10 12 - - - - - - - - 1017.3 -
20/03:30am SE 9 13 - - - - - - - - 1017.5 -
20/03:00am SE 10 14 - - - - - - - - 1017.6 -
20/02:30am SE 11 16 - - - - - - - - 1017.8 -
20/02:00am ESE 10 14 - - - - - - - - 1018.1 -
20/01:30am SE 11 16 - - - - - - - - 1018.5 -
20/01:00am ESE 10 14 - - - - - - - - 1018.8 -
20/12:30am ESE 9 13 - - - - - - - - 1019.1 -
20/12:00am ESE 12 18 - - - - - - - - 1019.4 -
 
Date/Time
EST
Wind Sea
Height
m
Swell Vis
km
Cloud Weather Temp
°C
Press
MSL
hPa
Rain since
9am
mm
Dir  Spd
kts
Gust
kts
Height
m
Period
s
Dir
19/11:30pm ESE 10 15 - - - - - - - - 1019.7 -
19/11:00pm ESE 11 16 - - - - - - - - 1020.0 -
19/10:30pm ESE 12 16 - - - - - - - - 1020.2 -
19/10:00pm ESE 11 15 - - - - - - - - 1020.3 -
19/09:30pm ESE 11 15 - - - - - - - - 1020.2 -
19/09:00pm ESE 8 14 - - - - - - - - 1020.0 -
19/08:30pm ESE 8 11 - - - - - - - - 1019.8 -
19/08:00pm ESE 9 14 - - - - - - - - 1019.4 -
19/07:30pm ESE 10 14 - - - - - - - - 1019.0 -
19/07:00pm ESE 9 14 - - - - - - - - 1018.6 -
19/06:30pm ESE 11 16 - - - - - - - - 1018.3 -
19/06:00pm ESE 11 17 - - - - - - - - 1018.1 -
19/05:30pm SE 14 18 - - - - - - - - 1018.0 -
19/05:00pm SE 12 18 - - - - - - - - 1018.0 -
19/04:30pm SE 9 12 - - - - - - - - 1017.9 -
19/04:00pm SE 12 17 - - - - - - - - 1017.9 -

Other formats

Comma delimited format used in spreadsheet applications
http://www.bom.gov.au/fwo/IDQ60701/IDQ60701.94295.axf

JavaScript Object Notation format (JSON) in row-major order
http://www.bom.gov.au/fwo/IDQ60701/IDQ60701.94295.json

Data quality

Most of these data are generated automatically and are frequently updated. Quality checks on data are not normally performed. It is possible for incorrect values to appear. Refer to information at About Latest Weather Observations and please check the disclaimer before using these data.